createdAt,value
2023-03-03T00:00:37.726Z,21.23
2023-03-03T00:01:39.963Z,21.47
2023-03-03T00:02:42.268Z,21.07
2023-03-03T00:03:44.698Z,21.53
2023-03-03T00:04:47.260Z,20.50
2023-03-03T00:05:50.258Z,21.83
2023-03-03T00:06:52.412Z,22.47
2023-03-03T00:07:54.570Z,22.97
2023-03-03T00:08:57.091Z,21.93
2023-03-03T00:09:59.540Z,23.03
2023-03-03T00:11:03.308Z,21.87
2023-03-03T00:12:23.529Z,22.10
2023-03-03T00:13:27.474Z,22.27
2023-03-03T00:14:33.801Z,22.60
2023-03-03T00:15:37.630Z,21.83
2023-03-03T00:16:40.826Z,22.90
2023-03-03T00:17:44.331Z,22.47
2023-03-03T00:18:48.267Z,22.17
2023-03-03T00:19:51.573Z,22.90
2023-03-03T00:20:56.677Z,22.73
2023-03-03T00:21:59.140Z,22.33
2023-03-03T00:23:19.574Z,22.07
2023-03-03T00:24:25.993Z,22.23
2023-03-03T00:25:31.488Z,22.73
2023-03-03T00:26:39.314Z,21.83
2023-03-03T00:27:42.474Z,22.60
2023-03-03T00:28:49.654Z,22.13
2023-03-03T00:29:57.211Z,22.03
2023-03-03T00:31:03.444Z,22.67
2023-03-03T00:32:25.745Z,23.33
2023-03-03T00:33:34.874Z,21.97
2023-03-03T00:34:37.939Z,22.70
2023-03-03T00:35:41.567Z,23.17
2023-03-03T00:36:44.730Z,22.80
2023-03-03T00:37:48.001Z,22.37
2023-03-03T00:38:50.285Z,22.93
2023-03-03T00:39:52.433Z,22.07
2023-03-03T00:40:54.578Z,23.40
2023-03-03T00:41:58.296Z,22.00
2023-03-03T00:43:02.012Z,23.23
2023-03-03T00:44:42.600Z,23.80
2023-03-03T00:46:03.143Z,21.27
2023-03-03T00:47:30.741Z,21.77
2023-03-03T00:48:36.558Z,20.90
2023-03-03T00:49:39.646Z,21.77
2023-03-03T00:50:43.637Z,21.93
2023-03-03T00:51:46.041Z,21.70
2023-03-03T00:53:13.620Z,20.77
2023-03-03T00:54:15.751Z,21.80
2023-03-03T00:55:18.034Z,20.87
2023-03-03T00:56:20.903Z,21.73
2023-03-03T00:57:23.065Z,20.43
2023-03-03T00:58:27.618Z,20.40
2023-03-03T00:59:32.355Z,20.63
2023-03-03T01:00:35.597Z,19.97
2023-03-03T01:01:39.203Z,20.63
2023-03-03T01:02:41.582Z,21.00
2023-03-03T01:03:44.860Z,20.87
2023-03-03T01:04:51.554Z,21.53
2023-03-03T01:05:54.415Z,20.20
2023-03-03T01:06:56.590Z,20.83
2023-03-03T01:07:58.782Z,20.47
2023-03-03T01:09:01.417Z,20.63
2023-03-03T01:10:05.567Z,21.80
2023-03-03T01:11:13.766Z,19.80
2023-03-03T01:12:16.223Z,20.53
2023-03-03T01:13:20.880Z,19.83
2023-03-03T01:14:23.224Z,20.63
2023-03-03T01:15:26.651Z,21.40
2023-03-03T01:16:28.965Z,20.47
2023-03-03T01:17:32.390Z,20.73
2023-03-03T01:18:35.407Z,20.33
2023-03-03T01:19:37.724Z,20.10
2023-03-03T01:20:40.944Z,21.53
2023-03-03T01:21:43.126Z,21.70
2023-03-03T01:22:45.312Z,20.97
2023-03-03T01:23:47.565Z,21.87
2023-03-03T01:24:49.735Z,22.30
2023-03-03T01:25:52.319Z,22.13
2023-03-03T01:26:54.554Z,21.17
2023-03-03T01:27:58.623Z,21.23
2023-03-03T01:29:00.804Z,22.17
2023-03-03T01:30:05.361Z,21.60
2023-03-03T01:31:07.657Z,22.67
2023-03-03T01:32:10.294Z,19.90
2023-03-03T01:33:12.474Z,20.77
2023-03-03T01:34:14.612Z,21.13
2023-03-03T01:37:58.896Z,19.67
2023-03-03T01:39:01.502Z,19.17
2023-03-03T01:40:06.427Z,20.83
2023-03-03T01:41:09.194Z,20.40
2023-03-03T01:42:11.638Z,19.93
2023-03-03T01:43:16.212Z,19.30
2023-03-03T01:44:18.620Z,21.20
2023-03-03T01:45:26.951Z,19.27
2023-03-03T01:46:44.926Z,20.10
2023-03-03T01:47:52.750Z,21.07
2023-03-03T01:49:03.645Z,20.27
2023-03-03T01:50:14.467Z,19.73
2023-03-03T01:51:23.947Z,19.13
2023-03-03T01:52:40.924Z,20.10
2023-03-03T01:53:48.083Z,20.27
2023-03-03T01:54:56.912Z,19.83
2023-03-03T01:55:59.871Z,20.03
2023-03-03T01:57:06.866Z,19.10
2023-03-03T01:58:16.210Z,19.17
2023-03-03T01:59:25.286Z,20.27
2023-03-03T02:00:28.800Z,20.03
2023-03-03T02:01:32.617Z,18.90
2023-03-03T02:02:36.045Z,19.23
2023-03-03T02:03:38.770Z,18.53
2023-03-03T02:04:41.071Z,19.57
2023-03-03T02:05:43.744Z,19.33
2023-03-03T02:06:52.976Z,19.80
2023-03-03T02:07:58.293Z,19.57
2023-03-03T02:09:17.143Z,19.77
2023-03-03T02:10:22.108Z,19.23
2023-03-03T02:11:24.671Z,19.03
2023-03-03T02:12:33.646Z,18.53
2023-03-03T02:13:35.842Z,18.93
2023-03-03T02:14:38.027Z,19.07
2023-03-03T02:15:41.998Z,18.70
2023-03-03T02:16:45.035Z,19.03
2023-03-03T02:17:52.856Z,18.80
2023-03-03T02:18:55.150Z,18.60
2023-03-03T02:20:07.805Z,19.33
2023-03-03T02:21:20.372Z,18.67
2023-03-03T02:22:44.388Z,17.97
2023-03-03T02:24:27.791Z,17.03
2023-03-03T02:25:59.086Z,17.40
2023-03-03T02:27:03.754Z,17.27
2023-03-03T02:28:06.122Z,18.37
2023-03-03T02:29:10.049Z,19.13
2023-03-03T02:30:17.512Z,18.00
2023-03-03T02:31:23.132Z,17.90
2023-03-03T02:32:25.420Z,17.90
2023-03-03T02:33:28.976Z,17.93
2023-03-03T02:34:31.269Z,18.90
2023-03-03T02:35:40.839Z,17.93
2023-03-03T02:36:43.028Z,18.27
2023-03-03T02:37:45.496Z,18.03
2023-03-03T02:39:13.297Z,18.30
2023-03-03T02:40:21.767Z,17.37
2023-03-03T02:41:43.434Z,17.33
2023-03-03T02:42:46.940Z,18.17
2023-03-03T02:44:04.854Z,18.30
2023-03-03T02:45:08.535Z,17.60
2023-03-03T02:46:10.737Z,16.67
2023-03-03T02:47:13.379Z,18.47
2023-03-03T02:48:15.503Z,18.03
2023-03-03T02:49:26.806Z,18.17
2023-03-03T02:50:29.040Z,17.93
2023-03-03T02:51:31.264Z,17.77
2023-03-03T02:52:33.444Z,18.87
2023-03-03T02:53:35.630Z,17.97
2023-03-03T02:54:38.797Z,19.00
2023-03-03T02:55:41.019Z,19.80
2023-03-03T02:56:43.620Z,19.00
2023-03-03T02:57:45.765Z,18.97
2023-03-03T02:58:47.997Z,18.53
2023-03-03T02:59:50.186Z,17.73
2023-03-03T03:00:53.121Z,18.10
2023-03-03T03:01:58.309Z,16.70
2023-03-03T03:03:00.609Z,17.13
2023-03-03T03:04:10.033Z,16.93
2023-03-03T03:05:13.003Z,17.60
2023-03-03T03:06:15.480Z,16.70
2023-03-03T03:07:17.765Z,17.67
2023-03-03T03:08:20.095Z,17.47
2023-03-03T03:09:24.409Z,17.33
2023-03-03T03:10:27.780Z,17.23
2023-03-03T03:11:30.091Z,16.87
2023-03-03T03:12:33.768Z,18.80
2023-03-03T03:13:36.835Z,18.53
2023-03-03T03:14:39.164Z,18.77
2023-03-03T03:15:42.518Z,17.90
2023-03-03T03:16:44.797Z,18.00
2023-03-03T03:17:47.389Z,17.53
2023-03-03T03:18:50.944Z,17.97
2023-03-03T03:19:53.406Z,17.70
2023-03-03T03:20:55.844Z,18.60
2023-03-03T03:21:58.421Z,19.03
2023-03-03T03:23:00.611Z,17.37
2023-03-03T03:24:02.956Z,17.30
2023-03-03T03:25:07.789Z,18.90
2023-03-03T03:26:10.208Z,17.87
2023-03-03T03:27:12.388Z,17.13
2023-03-03T03:28:16.866Z,17.57
2023-03-03T03:29:19.008Z,17.73
2023-03-03T03:30:21.400Z,17.30
2023-03-03T03:31:23.972Z,16.40
2023-03-03T03:32:26.790Z,17.10
2023-03-03T03:33:29.389Z,16.33
2023-03-03T03:34:32.577Z,16.40
2023-03-03T03:35:36.422Z,17.13
2023-03-03T03:36:40.019Z,18.07
2023-03-03T03:37:44.135Z,16.90
2023-03-03T03:38:47.821Z,18.00
2023-03-03T03:39:50.798Z,17.03
2023-03-03T03:40:55.130Z,16.53
2023-03-03T03:41:57.911Z,16.03
2023-03-03T03:43:00.065Z,17.20
2023-03-03T03:44:02.215Z,16.37
2023-03-03T03:45:04.954Z,16.50
2023-03-03T03:46:07.656Z,17.20
2023-03-03T03:47:10.337Z,16.83
2023-03-03T03:48:13.453Z,16.57
2023-03-03T03:49:15.670Z,17.47
2023-03-03T03:50:18.067Z,17.90
2023-03-03T03:51:21.250Z,16.83
2023-03-03T03:52:23.507Z,17.00
2023-03-03T03:53:25.872Z,17.40
2023-03-03T03:54:28.446Z,17.37
2023-03-03T03:55:31.003Z,17.30
2023-03-03T03:56:33.441Z,16.80
2023-03-03T03:57:37.167Z,18.00
2023-03-03T03:58:41.666Z,17.07
2023-03-03T03:59:45.989Z,16.93
2023-03-03T04:00:48.408Z,16.90
2023-03-03T04:01:50.742Z,16.73
2023-03-03T04:02:54.955Z,17.43
2023-03-03T04:03:57.353Z,16.60
2023-03-03T04:05:00.388Z,16.33
2023-03-03T04:06:02.946Z,16.23
2023-03-03T04:07:06.009Z,16.53
2023-03-03T04:08:08.423Z,17.03
2023-03-03T04:09:11.952Z,16.53
2023-03-03T04:10:14.148Z,16.50
2023-03-03T04:11:16.711Z,16.57
2023-03-03T04:12:18.961Z,17.73
2023-03-03T04:13:23.696Z,16.20
2023-03-03T04:14:26.066Z,17.67
2023-03-03T04:15:28.613Z,16.23
2023-03-03T04:16:31.709Z,16.50
2023-03-03T04:17:36.212Z,17.00
2023-03-03T04:18:39.343Z,17.00
2023-03-03T04:19:41.617Z,16.67
2023-03-03T04:20:44.952Z,16.47
2023-03-03T04:21:47.328Z,15.77
2023-03-03T04:22:49.556Z,16.57
2023-03-03T04:23:53.483Z,16.50
2023-03-03T04:24:55.837Z,16.33
2023-03-03T04:25:58.053Z,16.17
2023-03-03T04:27:01.450Z,16.80
2023-03-03T04:28:05.580Z,17.13
2023-03-03T04:29:08.557Z,16.40
2023-03-03T04:30:12.080Z,16.83
2023-03-03T04:31:15.113Z,15.10
2023-03-03T04:32:18.766Z,15.80
2023-03-03T04:33:23.505Z,15.90
2023-03-03T04:34:26.999Z,16.10
2023-03-03T04:35:29.776Z,16.63
2023-03-03T04:36:32.596Z,16.00
2023-03-03T04:37:35.662Z,15.23
2023-03-03T04:38:38.224Z,15.67
2023-03-03T04:39:40.858Z,15.57
2023-03-03T04:40:43.510Z,14.87
2023-03-03T04:41:47.186Z,15.10
2023-03-03T04:42:50.138Z,15.60
2023-03-03T04:43:52.371Z,16.37
2023-03-03T04:44:55.112Z,15.03
2023-03-03T04:45:58.109Z,15.53
2023-03-03T04:47:00.338Z,15.33
2023-03-03T04:48:03.173Z,15.77
2023-03-03T04:49:10.734Z,15.30
2023-03-03T04:50:14.393Z,14.67
2023-03-03T04:51:16.961Z,15.20
2023-03-03T04:52:20.336Z,15.03
2023-03-03T04:53:23.334Z,14.53
2023-03-03T04:54:25.803Z,15.43
2023-03-03T04:55:27.953Z,14.33
2023-03-03T04:56:32.589Z,14.80
2023-03-03T04:57:35.677Z,15.10
2023-03-03T04:58:38.299Z,14.33
2023-03-03T04:59:40.694Z,14.50
2023-03-03T05:00:43.017Z,15.13
2023-03-03T05:01:46.803Z,14.70
2023-03-03T05:02:49.902Z,14.90
2023-03-03T05:03:52.173Z,13.97
2023-03-03T05:04:54.418Z,15.83
2023-03-03T05:05:56.672Z,15.07
2023-03-03T05:06:58.930Z,14.83
2023-03-03T05:08:01.101Z,15.70
2023-03-03T05:09:04.596Z,15.73
2023-03-03T05:10:08.532Z,15.27
2023-03-03T05:11:10.889Z,15.27
2023-03-03T05:12:13.087Z,14.60
2023-03-03T05:13:17.265Z,14.83
2023-03-03T05:14:19.564Z,14.73
2023-03-03T05:15:21.797Z,15.20
2023-03-03T05:16:24.494Z,14.97
2023-03-03T05:17:26.741Z,16.03
2023-03-03T05:18:29.338Z,14.83
2023-03-03T05:19:32.046Z,15.43
2023-03-03T05:20:35.705Z,15.93
2023-03-03T05:21:41.847Z,14.37
2023-03-03T05:22:44.019Z,14.93
2023-03-03T05:23:46.210Z,15.23
2023-03-03T05:24:49.504Z,14.57
2023-03-03T05:25:52.262Z,14.60
2023-03-03T05:26:54.464Z,14.80
2023-03-03T05:27:56.697Z,15.33
2023-03-03T05:28:59.179Z,14.87
2023-03-03T05:30:01.336Z,14.33
2023-03-03T05:31:03.750Z,15.27
2023-03-03T05:32:06.344Z,15.43
2023-03-03T05:33:09.085Z,14.77
2023-03-03T05:34:11.294Z,15.27
2023-03-03T05:35:13.474Z,15.80
2023-03-03T05:36:16.789Z,15.00
2023-03-03T05:37:19.020Z,14.47
2023-03-03T05:38:21.552Z,15.77
2023-03-03T05:39:23.900Z,15.40
2023-03-03T05:40:27.834Z,15.60
2023-03-03T05:41:30.030Z,15.73
2023-03-03T05:42:32.420Z,15.47
2023-03-03T05:43:35.659Z,16.23
2023-03-03T05:44:38.660Z,15.63
2023-03-03T05:45:40.991Z,16.60
2023-03-03T05:46:43.338Z,16.17
2023-03-03T05:47:45.880Z,15.50
2023-03-03T05:48:48.110Z,15.53
2023-03-03T05:49:50.252Z,16.80
2023-03-03T05:50:52.468Z,15.10
2023-03-03T05:51:54.790Z,15.43
2023-03-03T05:52:57.265Z,15.77
2023-03-03T05:53:59.772Z,14.30
2023-03-03T05:55:02.225Z,14.57
2023-03-03T05:56:06.595Z,15.37
2023-03-03T05:57:08.813Z,14.83
2023-03-03T05:58:12.256Z,15.73
2023-03-03T05:59:14.482Z,15.53
2023-03-03T06:00:17.267Z,15.37
2023-03-03T06:01:19.427Z,15.53
2023-03-03T06:02:21.765Z,15.50
2023-03-03T06:03:24.538Z,15.10
2023-03-03T06:04:26.804Z,15.40
2023-03-03T06:05:29.029Z,14.93
2023-03-03T06:06:31.185Z,15.77
2023-03-03T06:07:33.464Z,15.37
2023-03-03T06:08:35.827Z,15.70
2023-03-03T06:09:38.229Z,16.03
2023-03-03T06:10:40.539Z,15.63
2023-03-03T06:11:45.100Z,15.10
2023-03-03T06:12:47.300Z,15.90
2023-03-03T06:13:49.553Z,14.60
2023-03-03T06:14:51.720Z,15.93
2023-03-03T06:15:54.056Z,15.80
2023-03-03T06:16:58.216Z,15.70
2023-03-03T06:18:00.384Z,15.57
2023-03-03T06:19:02.629Z,14.80
2023-03-03T06:20:05.800Z,15.87
2023-03-03T06:21:08.246Z,15.47
2023-03-03T06:22:10.452Z,14.17
2023-03-03T06:23:12.714Z,15.20
2023-03-03T06:24:14.938Z,14.87
2023-03-03T06:25:17.245Z,14.93
2023-03-03T06:26:19.645Z,14.47
2023-03-03T06:27:22.127Z,14.73
2023-03-03T06:28:25.221Z,14.93
2023-03-03T06:29:28.135Z,14.77
2023-03-03T06:30:30.936Z,15.00
2023-03-03T06:31:33.161Z,15.07
2023-03-03T06:32:36.493Z,13.83
2023-03-03T06:33:39.137Z,14.53
2023-03-03T06:34:41.322Z,14.13
2023-03-03T06:35:43.592Z,14.60
2023-03-03T06:36:46.053Z,14.10
2023-03-03T06:37:50.919Z,13.67
2023-03-03T06:38:53.176Z,13.80
2023-03-03T06:39:55.773Z,13.70
2023-03-03T06:40:58.686Z,14.23
2023-03-03T06:42:01.337Z,14.43
2023-03-03T06:43:04.451Z,14.17
2023-03-03T06:44:06.661Z,15.20
2023-03-03T06:45:09.360Z,15.33
2023-03-03T06:46:11.602Z,13.90
2023-03-03T06:47:13.852Z,14.00
2023-03-03T06:48:16.033Z,13.80
2023-03-03T06:49:18.277Z,13.73
2023-03-03T06:50:21.004Z,13.10
2023-03-03T06:51:32.162Z,13.73
2023-03-03T06:52:34.561Z,13.23
2023-03-03T06:53:36.870Z,12.97
2023-03-03T06:54:39.229Z,13.00
2023-03-03T06:55:44.536Z,12.57
2023-03-03T06:56:48.410Z,12.37
2023-03-03T06:57:50.779Z,12.97
2023-03-03T06:59:02.889Z,12.57
2023-03-03T07:00:29.516Z,12.40
2023-03-03T07:01:37.370Z,12.27
2023-03-03T07:02:40.186Z,12.03
2023-03-03T07:03:42.415Z,12.00
2023-03-03T07:04:47.034Z,13.10
2023-03-03T07:05:49.421Z,12.47
2023-03-03T07:06:51.698Z,12.60
2023-03-03T07:07:54.637Z,13.30
2023-03-03T07:08:58.122Z,12.70
2023-03-03T07:10:00.477Z,12.33
2023-03-03T07:11:09.411Z,12.07
2023-03-03T07:12:16.552Z,11.37
2023-03-03T07:13:26.071Z,12.57
2023-03-03T07:14:29.962Z,11.63
2023-03-03T07:15:36.222Z,11.30
2023-03-03T07:16:38.505Z,11.77
2023-03-03T07:17:50.910Z,11.70
2023-03-03T07:18:54.984Z,11.10
2023-03-03T07:19:57.510Z,11.43
2023-03-03T07:21:00.395Z,11.60
2023-03-03T07:22:12.762Z,11.80
2023-03-03T07:23:27.488Z,11.57
2023-03-03T07:24:31.409Z,10.83
2023-03-03T07:25:38.160Z,11.37
2023-03-03T07:26:40.342Z,11.00
2023-03-03T07:27:42.566Z,10.80
2023-03-03T07:28:52.551Z,11.03
2023-03-03T07:30:14.126Z,11.07
2023-03-03T07:31:37.643Z,10.93
2023-03-03T07:32:46.559Z,10.93
2023-03-03T07:33:48.741Z,9.90
2023-03-03T07:34:52.491Z,10.90
2023-03-03T07:35:58.394Z,10.77
2023-03-03T07:37:13.792Z,10.80
2023-03-03T07:38:31.443Z,10.97
2023-03-03T07:39:43.324Z,10.20
2023-03-03T07:40:52.520Z,10.07
2023-03-03T07:42:19.531Z,10.47
2023-03-03T07:43:28.894Z,10.63
2023-03-03T07:44:37.068Z,10.27
2023-03-03T07:45:39.250Z,9.63
2023-03-03T07:46:48.165Z,9.50
2023-03-03T07:47:50.357Z,10.50
2023-03-03T07:48:52.798Z,9.83
2023-03-03T07:49:57.508Z,10.00
2023-03-03T07:51:05.020Z,10.20
2023-03-03T07:52:25.959Z,10.03
2023-03-03T07:53:34.900Z,9.27
2023-03-03T07:54:40.586Z,8.70
2023-03-03T07:55:42.977Z,9.47
2023-03-03T07:56:45.785Z,8.97
2023-03-03T07:57:51.746Z,9.00
2023-03-03T07:58:56.621Z,9.43
2023-03-03T08:00:29.584Z,9.33
2023-03-03T08:01:48.607Z,8.90
2023-03-03T08:03:05.255Z,9.10
2023-03-03T08:04:16.637Z,8.77
2023-03-03T08:05:30.999Z,8.83
2023-03-03T08:06:46.733Z,8.50
2023-03-03T08:07:52.197Z,8.60
2023-03-03T08:08:54.310Z,8.87
2023-03-03T08:10:01.316Z,8.73
2023-03-03T08:11:04.732Z,9.43
2023-03-03T08:12:06.940Z,8.57
2023-03-03T08:13:18.494Z,8.63
2023-03-03T08:14:27.578Z,8.77
2023-03-03T08:15:36.730Z,8.30
2023-03-03T08:16:39.141Z,8.60
2023-03-03T08:17:44.103Z,9.20
2023-03-03T08:18:53.561Z,8.47
2023-03-03T08:19:56.290Z,9.10
2023-03-03T08:21:06.053Z,8.43
2023-03-03T08:22:31.656Z,8.10
2023-03-03T08:23:33.783Z,8.90
2023-03-03T08:24:38.375Z,8.90
2023-03-03T08:25:42.516Z,9.33
2023-03-03T08:26:45.193Z,9.33
2023-03-03T08:27:47.455Z,9.03
2023-03-03T08:28:49.928Z,9.40
2023-03-03T08:29:52.077Z,8.83
2023-03-03T08:31:05.556Z,8.83
2023-03-03T08:32:15.440Z,9.30
2023-03-03T08:33:18.166Z,9.60
2023-03-03T08:34:20.361Z,8.83
2023-03-03T08:35:22.527Z,9.40
2023-03-03T08:36:25.020Z,9.47
2023-03-03T08:37:27.399Z,8.83
2023-03-03T08:38:29.832Z,9.47
2023-03-03T08:39:32.119Z,8.47
2023-03-03T08:40:35.185Z,9.03
2023-03-03T08:41:37.477Z,9.40
2023-03-03T08:42:39.688Z,9.03
2023-03-03T08:43:41.869Z,8.87
2023-03-03T08:44:44.052Z,9.53
2023-03-03T08:45:47.293Z,8.87
2023-03-03T08:46:49.762Z,9.20
2023-03-03T08:47:52.017Z,8.33
2023-03-03T08:48:54.309Z,9.20
2023-03-03T08:49:56.503Z,9.00
2023-03-03T08:50:59.241Z,9.47
2023-03-03T08:52:01.599Z,8.83
2023-03-03T08:53:04.441Z,9.33
2023-03-03T08:54:06.699Z,9.00
2023-03-03T08:55:09.233Z,8.90
2023-03-03T08:56:11.874Z,8.97
2023-03-03T08:57:14.037Z,9.17
2023-03-03T08:58:17.742Z,8.83
2023-03-03T08:59:20.625Z,9.10
2023-03-03T09:00:23.407Z,9.00
2023-03-03T09:01:25.638Z,8.90
2023-03-03T09:02:27.827Z,8.63
2023-03-03T09:03:30.420Z,9.27
2023-03-03T09:04:33.169Z,8.90
2023-03-03T09:05:38.111Z,8.70
2023-03-03T09:06:40.232Z,8.20
2023-03-03T09:07:43.140Z,9.23
2023-03-03T09:08:45.335Z,8.07
2023-03-03T09:09:47.960Z,8.07
2023-03-03T09:10:50.655Z,8.03
2023-03-03T09:12:03.539Z,7.67
2023-03-03T09:13:15.531Z,6.90
2023-03-03T09:14:19.055Z,6.97
2023-03-03T09:15:25.787Z,6.57
2023-03-03T09:16:35.088Z,6.87
2023-03-03T09:17:37.932Z,6.63
2023-03-03T09:18:41.831Z,6.17
2023-03-03T09:19:45.444Z,6.60
2023-03-03T09:20:50.181Z,6.47
2023-03-03T09:21:57.372Z,7.00
2023-03-03T09:23:27.915Z,6.57
2023-03-03T09:24:32.165Z,6.53
2023-03-03T09:25:37.724Z,6.23
2023-03-03T09:26:47.779Z,6.00
2023-03-03T09:27:54.283Z,6.00
2023-03-03T09:29:08.216Z,6.57
2023-03-03T09:30:37.023Z,6.07
2023-03-03T09:31:45.698Z,6.20
2023-03-03T09:32:47.900Z,6.30
2023-03-03T09:33:51.697Z,6.50
2023-03-03T09:34:54.061Z,6.23
2023-03-03T09:36:26.120Z,6.20
2023-03-03T09:37:51.060Z,6.00
2023-03-03T09:38:55.844Z,6.07
2023-03-03T09:39:58.656Z,5.77
2023-03-03T09:41:07.301Z,6.17
2023-03-03T09:42:25.960Z,5.67
2023-03-03T09:43:50.173Z,5.40
2023-03-03T09:45:11.788Z,5.40
2023-03-03T09:46:40.379Z,5.40
2023-03-03T09:48:08.071Z,5.27
2023-03-03T09:49:20.092Z,5.03
2023-03-03T09:50:49.298Z,5.07
2023-03-03T09:52:21.556Z,5.33
2023-03-03T09:53:45.842Z,4.90
2023-03-03T09:55:17.759Z,4.73
2023-03-03T09:56:30.508Z,5.00
2023-03-03T09:58:01.240Z,5.00
2023-03-03T09:59:30.248Z,4.67
2023-03-03T10:00:50.898Z,4.43
2023-03-03T10:02:11.611Z,4.90
2023-03-03T10:03:26.280Z,4.90
2023-03-03T10:04:55.643Z,5.43
2023-03-03T10:06:13.062Z,4.93
2023-03-03T10:07:31.219Z,5.00
2023-03-03T10:08:48.143Z,4.70
2023-03-03T10:10:04.046Z,4.90
2023-03-03T10:11:13.518Z,4.87
2023-03-03T10:12:53.803Z,4.63
2023-03-03T10:14:20.002Z,4.40
2023-03-03T10:15:59.846Z,4.53
2023-03-03T10:17:30.222Z,4.20
2023-03-03T10:19:03.149Z,4.50
2023-03-03T10:20:28.203Z,4.40
2023-03-03T10:21:44.860Z,4.63
2023-03-03T10:22:54.507Z,4.20
2023-03-03T10:24:08.882Z,4.00
2023-03-03T10:25:10.978Z,4.20
2023-03-03T10:26:57.959Z,4.20
2023-03-03T10:28:30.429Z,4.57
2023-03-03T10:29:50.734Z,3.83
2023-03-03T10:31:28.370Z,3.87
2023-03-03T10:32:41.539Z,4.00
2023-03-03T10:34:00.652Z,3.87
2023-03-03T10:35:21.431Z,3.67
2023-03-03T10:36:34.746Z,3.57
2023-03-03T10:37:52.474Z,4.07
2023-03-03T10:39:42.225Z,4.00
2023-03-03T10:40:57.167Z,3.73
2023-03-03T10:42:06.992Z,4.00
2023-03-03T10:43:35.108Z,4.00
2023-03-03T10:45:04.946Z,3.90
2023-03-03T10:46:17.414Z,4.00
2023-03-03T10:47:35.839Z,3.80
2023-03-03T10:48:56.780Z,4.23
2023-03-03T10:50:25.749Z,3.80
2023-03-03T10:51:46.186Z,4.00
2023-03-03T10:53:12.327Z,3.70
2023-03-03T10:54:45.713Z,3.80
2023-03-03T10:55:57.759Z,3.70
2023-03-03T10:57:12.839Z,3.87
2023-03-03T10:58:17.841Z,3.60
2023-03-03T10:59:41.292Z,3.67
2023-03-03T11:00:58.755Z,3.57
2023-03-03T11:02:53.632Z,3.70
2023-03-03T11:04:04.870Z,3.80
2023-03-03T11:05:29.301Z,3.77
2023-03-03T11:06:40.053Z,3.70
2023-03-03T11:08:07.506Z,3.90
2023-03-03T11:09:25.005Z,4.13
2023-03-03T11:10:47.669Z,3.93
2023-03-03T11:11:49.843Z,3.93
2023-03-03T11:13:11.398Z,4.17
2023-03-03T11:14:34.897Z,3.87
2023-03-03T11:16:00.831Z,3.77
2023-03-03T11:17:18.129Z,4.30
2023-03-03T11:18:51.360Z,4.00
2023-03-03T11:20:05.009Z,4.00
2023-03-03T11:21:30.745Z,4.37
2023-03-03T11:22:57.623Z,3.80
2023-03-03T11:24:13.191Z,3.90
2023-03-03T11:25:33.346Z,4.00
2023-03-03T11:26:46.834Z,3.77
2023-03-03T11:28:12.726Z,3.90
2023-03-03T11:29:42.007Z,4.30
2023-03-03T11:31:02.763Z,3.83
2023-03-03T11:32:16.655Z,3.97
2023-03-03T11:33:38.576Z,3.90
2023-03-03T11:34:57.542Z,4.13
2023-03-03T11:36:11.971Z,3.80
2023-03-03T11:37:23.221Z,3.47
2023-03-03T11:38:37.213Z,3.97
2023-03-03T11:39:42.372Z,3.80
2023-03-03T11:40:57.631Z,3.70
2023-03-03T11:42:05.950Z,3.90
2023-03-03T11:43:35.621Z,3.30
2023-03-03T11:44:46.357Z,3.77
2023-03-03T11:45:58.951Z,3.43
2023-03-03T11:47:21.950Z,3.40
2023-03-03T11:48:52.707Z,3.37
2023-03-03T11:50:03.882Z,3.30
2023-03-03T11:51:28.013Z,3.50
2023-03-03T11:52:47.966Z,3.93
2023-03-03T11:54:19.609Z,3.33
2023-03-03T11:55:26.920Z,4.10
2023-03-03T11:56:42.809Z,4.13
2023-03-03T11:58:14.471Z,4.10
2023-03-03T11:59:34.761Z,3.80
2023-03-03T12:01:14.883Z,3.53
2023-03-03T12:02:56.153Z,3.90
2023-03-03T12:04:14.282Z,3.60
2023-03-03T12:05:45.484Z,4.10
2023-03-03T12:07:18.170Z,4.10
2023-03-03T12:08:54.321Z,3.67
2023-03-03T12:10:23.116Z,4.10
2023-03-03T12:11:38.787Z,4.07
2023-03-03T12:12:44.702Z,3.87
2023-03-03T12:14:17.718Z,4.13
2023-03-03T12:15:31.349Z,3.90
2023-03-03T12:16:40.255Z,3.60
2023-03-03T12:18:15.085Z,3.67
2023-03-03T12:19:29.755Z,3.70
2023-03-03T12:20:52.370Z,3.53
2023-03-03T12:22:08.895Z,3.70
2023-03-03T12:23:49.605Z,3.57
2023-03-03T12:25:14.657Z,3.70
2023-03-03T12:26:28.350Z,3.53
2023-03-03T12:27:54.202Z,3.87
2023-03-03T12:29:08.022Z,3.37
2023-03-03T12:30:21.077Z,4.00
2023-03-03T12:31:56.810Z,4.07
2023-03-03T12:33:00.476Z,4.20
2023-03-03T12:34:18.170Z,4.53
2023-03-03T12:35:26.081Z,3.87
2023-03-03T12:36:44.880Z,4.50
2023-03-03T12:37:59.866Z,4.80
2023-03-03T12:39:34.047Z,4.50
2023-03-03T12:41:04.809Z,4.73
2023-03-03T12:42:36.711Z,4.43
2023-03-03T12:44:03.442Z,4.70
2023-03-03T12:45:38.677Z,4.43
2023-03-03T12:46:52.213Z,4.37
2023-03-03T12:48:01.505Z,4.73
2023-03-03T12:49:04.485Z,4.47
2023-03-03T12:50:11.411Z,5.37
2023-03-03T12:51:32.420Z,5.10
2023-03-03T12:52:58.156Z,5.03
2023-03-03T12:54:06.634Z,4.77
2023-03-03T12:55:20.040Z,4.87
2023-03-03T12:56:48.631Z,4.87
2023-03-03T12:57:59.967Z,5.53
2023-03-03T12:59:16.033Z,5.27
2023-03-03T13:00:25.820Z,5.53
2023-03-03T13:01:54.124Z,5.47
2023-03-03T13:03:08.163Z,5.67
2023-03-03T13:04:19.709Z,5.30
2023-03-03T13:05:48.247Z,5.40
2023-03-03T13:07:05.057Z,5.20
2023-03-03T13:08:31.623Z,5.20
2023-03-03T13:10:07.690Z,5.83
2023-03-03T13:11:22.511Z,5.43
2023-03-03T13:12:30.647Z,5.10
2023-03-03T13:13:52.548Z,5.10
2023-03-03T13:15:02.777Z,4.60
2023-03-03T13:16:16.801Z,5.00
2023-03-03T13:17:27.549Z,5.00
2023-03-03T13:18:36.268Z,5.10
2023-03-03T13:19:44.397Z,5.00
2023-03-03T13:20:54.711Z,5.20
2023-03-03T13:22:12.899Z,4.97
2023-03-03T13:23:33.452Z,5.00
2023-03-03T13:25:19.721Z,4.97
2023-03-03T13:26:40.768Z,4.33
2023-03-03T13:27:47.956Z,4.70
2023-03-03T13:29:16.502Z,4.33
2023-03-03T13:30:33.321Z,5.40
2023-03-03T13:31:40.819Z,5.03
2023-03-03T13:33:01.641Z,4.90
2023-03-03T13:34:04.057Z,5.00
2023-03-03T13:35:32.110Z,5.40
2023-03-03T13:37:20.654Z,5.23
2023-03-03T13:38:28.428Z,4.97
2023-03-03T13:39:37.770Z,5.27
2023-03-03T13:40:49.257Z,5.70
2023-03-03T13:42:13.453Z,5.40
2023-03-03T13:43:28.795Z,5.07
2023-03-03T13:44:42.635Z,5.17
2023-03-03T13:46:09.311Z,5.47
2023-03-03T13:47:23.663Z,5.30
2023-03-03T13:48:50.338Z,5.63
2023-03-03T13:50:12.376Z,5.60
2023-03-03T13:51:37.541Z,5.10
2023-03-03T13:53:03.547Z,5.47
2023-03-03T13:54:19.266Z,5.33
2023-03-03T13:55:30.105Z,5.80
2023-03-03T13:56:38.282Z,5.83
2023-03-03T13:58:01.089Z,5.70
2023-03-03T13:59:10.469Z,5.57
2023-03-03T14:00:38.579Z,5.93
2023-03-03T14:01:47.100Z,5.33
2023-03-03T14:03:15.610Z,5.63
2023-03-03T14:04:26.974Z,5.70
2023-03-03T14:05:47.281Z,5.63
2023-03-03T14:06:58.027Z,5.07
2023-03-03T14:08:12.971Z,5.30
2023-03-03T14:09:46.430Z,5.67
2023-03-03T14:11:10.910Z,5.80
2023-03-03T14:12:39.113Z,6.03
2023-03-03T14:14:00.390Z,5.73
2023-03-03T14:15:32.220Z,5.27
2023-03-03T14:16:39.768Z,5.70
2023-03-03T14:17:58.017Z,5.23
2023-03-03T14:19:10.644Z,4.70
2023-03-03T14:20:21.797Z,5.43
2023-03-03T14:21:31.481Z,5.20
2023-03-03T14:22:53.779Z,5.17
2023-03-03T14:24:05.325Z,5.63
2023-03-03T14:25:14.644Z,5.00
2023-03-03T14:26:17.641Z,5.60
2023-03-03T14:27:26.046Z,5.50
2023-03-03T14:28:37.497Z,5.13
2023-03-03T14:29:39.746Z,5.13
2023-03-03T14:30:45.461Z,5.20
2023-03-03T14:31:47.978Z,5.40
2023-03-03T14:33:05.912Z,5.80
2023-03-03T14:34:23.484Z,5.87
2023-03-03T14:35:32.671Z,5.80
2023-03-03T14:36:39.658Z,6.17
2023-03-03T14:37:46.812Z,6.03
2023-03-03T14:38:49.477Z,5.60
2023-03-03T14:40:30.966Z,5.47
2023-03-03T14:41:40.361Z,5.40
2023-03-03T14:42:51.676Z,5.60
2023-03-03T14:44:02.274Z,5.37
2023-03-03T14:45:29.350Z,5.20
2023-03-03T14:46:36.561Z,5.40
2023-03-03T14:47:45.846Z,5.07
2023-03-03T14:48:53.856Z,5.40
2023-03-03T14:50:03.152Z,5.30
2023-03-03T14:51:31.694Z,5.70
2023-03-03T14:52:35.194Z,5.67
2023-03-03T14:53:42.551Z,5.67
2023-03-03T14:55:25.030Z,5.67
2023-03-03T14:56:34.565Z,5.77
2023-03-03T14:57:46.497Z,5.33
2023-03-03T14:58:50.200Z,5.03
2023-03-03T14:59:56.708Z,5.70
2023-03-03T15:01:34.353Z,5.00
2023-03-03T15:02:42.456Z,5.67
2023-03-03T15:03:49.404Z,5.30
2023-03-03T15:05:13.693Z,5.47
2023-03-03T15:06:46.330Z,5.27
2023-03-03T15:08:09.034Z,5.40
2023-03-03T15:09:32.982Z,5.57
2023-03-03T15:10:38.528Z,5.23
2023-03-03T15:11:40.769Z,5.17
2023-03-03T15:12:43.284Z,5.43